sensor_id;sensor_type;location;lat;lon;timestamp;P1;durP1;ratioP1;P2;durP2;ratioP2
52508;SDS011;38420;53.150;6.370;2023-09-08T00:01:37;9.90;;;8.70;;
52508;SDS011;38420;53.150;6.370;2023-09-08T00:04:03;10.27;;;8.93;;
52508;SDS011;38420;53.150;6.370;2023-09-08T00:06:29;12.02;;;9.00;;
52508;SDS011;38420;53.150;6.370;2023-09-08T00:08:54;10.93;;;9.15;;
52508;SDS011;38420;53.150;6.370;2023-09-08T00:11:20;13.07;;;9.07;;
52508;SDS011;38420;53.150;6.370;2023-09-08T00:13:46;11.88;;;9.85;;
52508;SDS011;38420;53.150;6.370;2023-09-08T00:16:11;11.98;;;10.05;;
52508;SDS011;38420;53.150;6.370;2023-09-08T00:18:37;13.65;;;9.27;;
52508;SDS011;38420;53.150;6.370;2023-09-08T00:21:02;11.77;;;8.93;;
52508;SDS011;38420;53.150;6.370;2023-09-08T00:23:28;11.90;;;9.82;;
52508;SDS011;38420;53.150;6.370;2023-09-08T00:25:54;10.73;;;9.23;;
52508;SDS011;38420;53.150;6.370;2023-09-08T00:28:19;11.38;;;9.32;;
52508;SDS011;38420;53.150;6.370;2023-09-08T00:30:45;9.85;;;8.85;;
52508;SDS011;38420;53.150;6.370;2023-09-08T00:33:10;15.23;;;9.30;;
52508;SDS011;38420;53.150;6.370;2023-09-08T00:35:38;12.15;;;10.30;;
52508;SDS011;38420;53.150;6.370;2023-09-08T00:38:04;13.77;;;9.43;;
52508;SDS011;38420;53.150;6.370;2023-09-08T00:40:30;10.10;;;8.82;;
52508;SDS011;38420;53.150;6.370;2023-09-08T00:42:55;15.65;;;10.73;;
52508;SDS011;38420;53.150;6.370;2023-09-08T00:45:21;13.15;;;9.55;;
52508;SDS011;38420;53.150;6.370;2023-09-08T00:47:47;13.35;;;9.98;;
52508;SDS011;38420;53.150;6.370;2023-09-08T00:50:13;13.02;;;9.75;;
52508;SDS011;38420;53.150;6.370;2023-09-08T00:52:38;14.13;;;9.63;;
52508;SDS011;38420;53.150;6.370;2023-09-08T00:55:04;12.68;;;9.77;;
52508;SDS011;38420;53.150;6.370;2023-09-08T00:57:30;10.43;;;9.32;;
52508;SDS011;38420;53.150;6.370;2023-09-08T00:59:56;22.83;;;11.50;;
52508;SDS011;38420;53.150;6.370;2023-09-08T01:02:23;12.57;;;10.25;;
52508;SDS011;38420;53.150;6.370;2023-09-08T01:04:48;13.02;;;10.35;;
52508;SDS011;38420;53.150;6.370;2023-09-08T01:07:15;11.43;;;9.98;;
52508;SDS011;38420;53.150;6.370;2023-09-08T01:09:41;13.25;;;10.90;;
52508;SDS011;38420;53.150;6.370;2023-09-08T01:12:07;12.57;;;10.75;;
52508;SDS011;38420;53.150;6.370;2023-09-08T01:14:33;12.70;;;9.75;;
52508;SDS011;38420;53.150;6.370;2023-09-08T01:16:58;14.10;;;10.05;;
52508;SDS011;38420;53.150;6.370;2023-09-08T01:19:24;13.70;;;10.32;;
52508;SDS011;38420;53.150;6.370;2023-09-08T01:27:19;15.50;;;10.50;;
52508;SDS011;38420;53.150;6.370;2023-09-08T01:29:48;14.48;;;10.57;;
52508;SDS011;38420;53.150;6.370;2023-09-08T01:32:15;13.65;;;9.93;;
52508;SDS011;38420;53.150;6.370;2023-09-08T01:34:41;13.88;;;10.95;;
52508;SDS011;38420;53.150;6.370;2023-09-08T01:37:07;12.90;;;11.52;;
52508;SDS011;38420;53.150;6.370;2023-09-08T01:39:32;15.70;;;11.10;;
52508;SDS011;38420;53.150;6.370;2023-09-08T01:41:58;16.85;;;11.95;;
52508;SDS011;38420;53.150;6.370;2023-09-08T01:44:23;15.95;;;11.95;;
52508;SDS011;38420;53.150;6.370;2023-09-08T01:46:49;13.75;;;11.15;;
52508;SDS011;38420;53.150;6.370;2023-09-08T01:49:16;14.95;;;12.00;;
52508;SDS011;38420;53.150;6.370;2023-09-08T01:51:42;13.52;;;11.70;;
52508;SDS011;38420;53.150;6.370;2023-09-08T01:54:07;13.13;;;11.27;;
52508;SDS011;38420;53.150;6.370;2023-09-08T01:56:33;14.10;;;11.77;;
52508;SDS011;38420;53.150;6.370;2023-09-08T01:58:58;13.90;;;11.40;;
52508;SDS011;38420;53.150;6.370;2023-09-08T02:01:25;15.90;;;12.48;;
52508;SDS011;38420;53.150;6.370;2023-09-08T02:03:50;14.43;;;12.25;;
52508;SDS011;38420;53.150;6.370;2023-09-08T02:06:16;14.43;;;12.13;;
52508;SDS011;38420;53.150;6.370;2023-09-08T02:08:41;16.15;;;13.00;;
52508;SDS011;38420;53.150;6.370;2023-09-08T02:11:07;14.75;;;12.32;;
52508;SDS011;38420;53.150;6.370;2023-09-08T02:13:33;14.32;;;12.82;;
52508;SDS011;38420;53.150;6.370;2023-09-08T02:15:58;15.52;;;13.10;;
52508;SDS011;38420;53.150;6.370;2023-09-08T02:18:25;14.32;;;12.63;;
52508;SDS011;38420;53.150;6.370;2023-09-08T02:20:51;14.15;;;12.07;;
52508;SDS011;38420;53.150;6.370;2023-09-08T02:23:16;17.23;;;13.05;;
52508;SDS011;38420;53.150;6.370;2023-09-08T02:25:42;17.35;;;13.50;;
52508;SDS011;38420;53.150;6.370;2023-09-08T02:28:07;15.75;;;13.52;;
52508;SDS011;38420;53.150;6.370;2023-09-08T02:30:33;19.00;;;13.90;;
52508;SDS011;38420;53.150;6.370;2023-09-08T02:32:58;14.95;;;13.32;;
52508;SDS011;38420;53.150;6.370;2023-09-08T02:35:24;16.20;;;13.20;;
52508;SDS011;38420;53.150;6.370;2023-09-08T02:37:49;16.60;;;11.95;;
52508;SDS011;38420;53.150;6.370;2023-09-08T02:40:15;15.00;;;12.45;;
52508;SDS011;38420;53.150;6.370;2023-09-08T02:42:41;16.70;;;12.70;;
52508;SDS011;38420;53.150;6.370;2023-09-08T02:45:07;16.20;;;13.18;;
52508;SDS011;38420;53.150;6.370;2023-09-08T02:47:32;16.35;;;12.60;;
52508;SDS011;38420;53.150;6.370;2023-09-08T02:49:58;17.27;;;12.55;;
52508;SDS011;38420;53.150;6.370;2023-09-08T02:52:24;16.25;;;11.95;;
52508;SDS011;38420;53.150;6.370;2023-09-08T02:54:49;14.05;;;11.40;;
52508;SDS011;38420;53.150;6.370;2023-09-08T02:57:15;14.23;;;11.88;;
52508;SDS011;38420;53.150;6.370;2023-09-08T02:59:40;17.23;;;11.63;;
52508;SDS011;38420;53.150;6.370;2023-09-08T03:02:06;17.02;;;12.48;;
52508;SDS011;38420;53.150;6.370;2023-09-08T03:04:32;15.43;;;12.18;;
52508;SDS011;38420;53.150;6.370;2023-09-08T03:06:57;15.35;;;12.23;;
52508;SDS011;38420;53.150;6.370;2023-09-08T03:09:23;15.52;;;11.70;;
52508;SDS011;38420;53.150;6.370;2023-09-08T03:11:48;18.55;;;12.48;;
52508;SDS011;38420;53.150;6.370;2023-09-08T03:14:14;14.98;;;12.57;;
52508;SDS011;38420;53.150;6.370;2023-09-08T03:16:40;16.20;;;12.75;;
52508;SDS011;38420;53.150;6.370;2023-09-08T03:19:05;17.20;;;12.50;;
52508;SDS011;38420;53.150;6.370;2023-09-08T03:21:31;15.50;;;12.50;;
52508;SDS011;38420;53.150;6.370;2023-09-08T03:23:56;16.52;;;12.50;;
52508;SDS011;38420;53.150;6.370;2023-09-08T03:26:22;13.57;;;11.70;;
52508;SDS011;38420;53.150;6.370;2023-09-08T03:28:48;15.52;;;12.05;;
52508;SDS011;38420;53.150;6.370;2023-09-08T03:31:13;17.70;;;13.20;;
52508;SDS011;38420;53.150;6.370;2023-09-08T03:33:39;16.15;;;12.88;;
52508;SDS011;38420;53.150;6.370;2023-09-08T03:36:05;19.15;;;13.20;;
52508;SDS011;38420;53.150;6.370;2023-09-08T03:38:30;16.67;;;13.00;;
52508;SDS011;38420;53.150;6.370;2023-09-08T03:40:56;15.68;;;12.48;;
52508;SDS011;38420;53.150;6.370;2023-09-08T03:43:21;17.05;;;13.00;;
52508;SDS011;38420;53.150;6.370;2023-09-08T03:45:47;15.52;;;13.23;;
52508;SDS011;38420;53.150;6.370;2023-09-08T03:48:13;15.70;;;12.65;;
52508;SDS011;38420;53.150;6.370;2023-09-08T03:50:39;15.13;;;13.52;;
52508;SDS011;38420;53.150;6.370;2023-09-08T03:53:04;15.48;;;13.82;;
52508;SDS011;38420;53.150;6.370;2023-09-08T03:55:30;18.05;;;13.88;;
52508;SDS011;38420;53.150;6.370;2023-09-08T03:57:56;16.33;;;14.63;;
52508;SDS011;38420;53.150;6.370;2023-09-08T04:00:22;16.77;;;13.05;;
52508;SDS011;38420;53.150;6.370;2023-09-08T04:02:48;15.50;;;12.90;;
52508;SDS011;38420;53.150;6.370;2023-09-08T04:05:14;22.35;;;13.77;;
52508;SDS011;38420;53.150;6.370;2023-09-08T04:07:41;15.93;;;13.48;;
52508;SDS011;38420;53.150;6.370;2023-09-08T04:10:07;17.08;;;14.13;;
52508;SDS011;38420;53.150;6.370;2023-09-08T04:12:33;16.13;;;14.27;;
52508;SDS011;38420;53.150;6.370;2023-09-08T04:14:58;15.60;;;13.40;;
52508;SDS011;38420;53.150;6.370;2023-09-08T04:17:24;15.27;;;13.38;;
52508;SDS011;38420;53.150;6.370;2023-09-08T04:19:50;15.00;;;13.07;;
52508;SDS011;38420;53.150;6.370;2023-09-08T04:22:15;19.17;;;14.60;;
52508;SDS011;38420;53.150;6.370;2023-09-08T04:24:41;17.92;;;14.52;;
52508;SDS011;38420;53.150;6.370;2023-09-08T04:27:06;18.35;;;14.80;;
52508;SDS011;38420;53.150;6.370;2023-09-08T04:29:34;16.25;;;14.38;;
52508;SDS011;38420;53.150;6.370;2023-09-08T04:31:59;17.17;;;14.18;;
52508;SDS011;38420;53.150;6.370;2023-09-08T04:34:25;16.98;;;14.32;;
52508;SDS011;38420;53.150;6.370;2023-09-08T04:36:50;18.73;;;14.65;;
52508;SDS011;38420;53.150;6.370;2023-09-08T04:39:16;20.08;;;13.98;;
52508;SDS011;38420;53.150;6.370;2023-09-08T04:41:42;17.52;;;14.50;;
52508;SDS011;38420;53.150;6.370;2023-09-08T04:44:07;16.52;;;14.13;;
52508;SDS011;38420;53.150;6.370;2023-09-08T04:46:33;16.02;;;13.45;;
52508;SDS011;38420;53.150;6.370;2023-09-08T04:49:00;18.70;;;14.15;;
52508;SDS011;38420;53.150;6.370;2023-09-08T04:51:25;17.95;;;15.57;;
52508;SDS011;38420;53.150;6.370;2023-09-08T04:53:51;17.58;;;14.10;;
52508;SDS011;38420;53.150;6.370;2023-09-08T04:56:17;20.38;;;15.00;;
52508;SDS011;38420;53.150;6.370;2023-09-08T04:58:42;18.45;;;14.77;;
52508;SDS011;38420;53.150;6.370;2023-09-08T05:01:08;17.60;;;14.45;;
52508;SDS011;38420;53.150;6.370;2023-09-08T05:03:33;17.65;;;14.43;;
52508;SDS011;38420;53.150;6.370;2023-09-08T05:05:59;16.35;;;14.65;;
52508;SDS011;38420;53.150;6.370;2023-09-08T05:08:26;17.75;;;14.20;;
52508;SDS011;38420;53.150;6.370;2023-09-08T05:10:52;17.42;;;15.30;;
52508;SDS011;38420;53.150;6.370;2023-09-08T05:13:17;18.80;;;15.23;;
52508;SDS011;38420;53.150;6.370;2023-09-08T05:15:43;19.02;;;14.55;;
52508;SDS011;38420;53.150;6.370;2023-09-08T05:18:13;19.45;;;15.88;;
52508;SDS011;38420;53.150;6.370;2023-09-08T05:20:39;17.80;;;14.68;;
52508;SDS011;38420;53.150;6.370;2023-09-08T05:23:04;16.40;;;14.18;;
52508;SDS011;38420;53.150;6.370;2023-09-08T05:25:30;17.80;;;14.70;;
52508;SDS011;38420;53.150;6.370;2023-09-08T05:27:56;18.40;;;13.98;;
52508;SDS011;38420;53.150;6.370;2023-09-08T05:30:22;18.75;;;15.00;;
52508;SDS011;38420;53.150;6.370;2023-09-08T05:32:47;17.67;;;14.75;;
52508;SDS011;38420;53.150;6.370;2023-09-08T05:35:13;16.17;;;13.52;;
52508;SDS011;38420;53.150;6.370;2023-09-08T05:37:39;17.95;;;14.32;;
52508;SDS011;38420;53.150;6.370;2023-09-08T05:40:05;17.33;;;14.48;;
52508;SDS011;38420;53.150;6.370;2023-09-08T05:42:31;17.73;;;14.63;;
52508;SDS011;38420;53.150;6.370;2023-09-08T05:44:57;16.65;;;14.60;;
52508;SDS011;38420;53.150;6.370;2023-09-08T05:47:23;18.25;;;13.48;;
52508;SDS011;38420;53.150;6.370;2023-09-08T05:49:48;16.52;;;14.32;;
52508;SDS011;38420;53.150;6.370;2023-09-08T05:52:14;19.08;;;13.75;;
52508;SDS011;38420;53.150;6.370;2023-09-08T05:54:39;18.17;;;14.23;;
52508;SDS011;38420;53.150;6.370;2023-09-08T05:57:05;15.85;;;13.68;;
52508;SDS011;38420;53.150;6.370;2023-09-08T05:59:31;18.33;;;13.57;;
52508;SDS011;38420;53.150;6.370;2023-09-08T06:01:57;15.27;;;13.35;;
52508;SDS011;38420;53.150;6.370;2023-09-08T06:04:22;19.40;;;12.88;;
52508;SDS011;38420;53.150;6.370;2023-09-08T06:06:48;16.33;;;13.15;;
52508;SDS011;38420;53.150;6.370;2023-09-08T06:09:13;15.30;;;13.13;;
52508;SDS011;38420;53.150;6.370;2023-09-08T06:11:41;18.50;;;12.70;;
52508;SDS011;38420;53.150;6.370;2023-09-08T06:14:07;17.15;;;13.18;;
52508;SDS011;38420;53.150;6.370;2023-09-08T06:16:32;15.07;;;12.45;;
52508;SDS011;38420;53.150;6.370;2023-09-08T06:18:58;15.95;;;12.77;;
52508;SDS011;38420;53.150;6.370;2023-09-08T06:21:25;16.45;;;13.35;;
52508;SDS011;38420;53.150;6.370;2023-09-08T06:23:51;15.32;;;12.20;;
52508;SDS011;38420;53.150;6.370;2023-09-08T06:26:16;14.77;;;12.38;;
52508;SDS011;38420;53.150;6.370;2023-09-08T06:28:42;18.02;;;13.05;;
52508;SDS011;38420;53.150;6.370;2023-09-08T06:31:09;17.20;;;13.68;;
52508;SDS011;38420;53.150;6.370;2023-09-08T06:33:35;14.38;;;12.43;;
52508;SDS011;38420;53.150;6.370;2023-09-08T06:36:00;15.05;;;12.68;;
52508;SDS011;38420;53.150;6.370;2023-09-08T06:38:26;15.43;;;12.45;;
52508;SDS011;38420;53.150;6.370;2023-09-08T06:40:52;12.63;;;11.23;;
52508;SDS011;38420;53.150;6.370;2023-09-08T06:43:19;15.60;;;12.23;;
52508;SDS011;38420;53.150;6.370;2023-09-08T06:45:47;14.88;;;12.88;;
52508;SDS011;38420;53.150;6.370;2023-09-08T06:48:14;16.35;;;11.88;;
52508;SDS011;38420;53.150;6.370;2023-09-08T06:50:40;15.45;;;12.20;;
52508;SDS011;38420;53.150;6.370;2023-09-08T06:53:05;12.93;;;11.23;;
52508;SDS011;38420;53.150;6.370;2023-09-08T06:55:31;16.98;;;11.27;;
52508;SDS011;38420;53.150;6.370;2023-09-08T06:57:57;14.15;;;10.93;;
52508;SDS011;38420;53.150;6.370;2023-09-08T07:00:22;16.58;;;11.45;;
52508;SDS011;38420;53.150;6.370;2023-09-08T07:02:48;12.98;;;10.43;;
52508;SDS011;38420;53.150;6.370;2023-09-08T07:05:17;13.55;;;10.95;;
52508;SDS011;38420;53.150;6.370;2023-09-08T07:07:42;16.92;;;11.65;;
52508;SDS011;38420;53.150;6.370;2023-09-08T07:10:08;12.23;;;10.75;;
52508;SDS011;38420;53.150;6.370;2023-09-08T07:12:34;12.98;;;10.45;;
52508;SDS011;38420;53.150;6.370;2023-09-08T07:15:00;12.43;;;10.30;;
52508;SDS011;38420;53.150;6.370;2023-09-08T07:17:26;11.73;;;9.90;;
52508;SDS011;38420;53.150;6.370;2023-09-08T07:19:52;13.50;;;9.77;;
52508;SDS011;38420;53.150;6.370;2023-09-08T07:22:17;10.85;;;9.75;;
52508;SDS011;38420;53.150;6.370;2023-09-08T07:24:44;15.48;;;10.23;;
52508;SDS011;38420;53.150;6.370;2023-09-08T07:27:09;12.52;;;9.65;;
52508;SDS011;38420;53.150;6.370;2023-09-08T07:29:38;16.45;;;9.45;;
52508;SDS011;38420;53.150;6.370;2023-09-08T07:32:04;10.80;;;8.68;;
52508;SDS011;38420;53.150;6.370;2023-09-08T07:34:30;12.00;;;8.50;;
52508;SDS011;38420;53.150;6.370;2023-09-08T07:36:55;12.25;;;9.85;;
52508;SDS011;38420;53.150;6.370;2023-09-08T07:39:21;12.15;;;10.13;;
52508;SDS011;38420;53.150;6.370;2023-09-08T07:41:47;11.05;;;9.13;;
52508;SDS011;38420;53.150;6.370;2023-09-08T07:44:12;12.88;;;8.75;;
52508;SDS011;38420;53.150;6.370;2023-09-08T07:46:38;11.73;;;9.48;;
52508;SDS011;38420;53.150;6.370;2023-09-08T07:49:04;10.60;;;8.75;;
52508;SDS011;38420;53.150;6.370;2023-09-08T07:51:29;10.63;;;8.75;;
52508;SDS011;38420;53.150;6.370;2023-09-08T07:53:55;10.25;;;7.97;;
52508;SDS011;38420;53.150;6.370;2023-09-08T07:56:21;12.25;;;9.10;;
52508;SDS011;38420;53.150;6.370;2023-09-08T07:58:47;10.73;;;9.02;;
52508;SDS011;38420;53.150;6.370;2023-09-08T08:01:13;13.70;;;8.48;;
52508;SDS011;38420;53.150;6.370;2023-09-08T08:03:40;10.77;;;8.38;;
52508;SDS011;38420;53.150;6.370;2023-09-08T08:06:05;10.55;;;7.25;;
52508;SDS011;38420;53.150;6.370;2023-09-08T08:08:31;8.45;;;7.57;;
52508;SDS011;38420;53.150;6.370;2023-09-08T08:10:59;9.00;;;8.10;;
52508;SDS011;38420;53.150;6.370;2023-09-08T08:13:24;10.48;;;7.75;;
52508;SDS011;38420;53.150;6.370;2023-09-08T08:15:50;9.88;;;6.53;;
52508;SDS011;38420;53.150;6.370;2023-09-08T08:18:16;8.57;;;7.65;;
52508;SDS011;38420;53.150;6.370;2023-09-08T08:20:41;9.35;;;7.10;;
52508;SDS011;38420;53.150;6.370;2023-09-08T08:23:07;8.68;;;7.30;;
52508;SDS011;38420;53.150;6.370;2023-09-08T08:25:33;8.80;;;6.80;;
52508;SDS011;38420;53.150;6.370;2023-09-08T08:27:59;8.98;;;7.38;;
52508;SDS011;38420;53.150;6.370;2023-09-08T08:30:26;7.80;;;6.50;;
52508;SDS011;38420;53.150;6.370;2023-09-08T08:32:52;9.43;;;7.13;;
52508;SDS011;38420;53.150;6.370;2023-09-08T08:35:18;7.47;;;5.45;;
52508;SDS011;38420;53.150;6.370;2023-09-08T08:37:44;6.63;;;5.50;;
52508;SDS011;38420;53.150;6.370;2023-09-08T08:40:10;8.65;;;5.50;;
52508;SDS011;38420;53.150;6.370;2023-09-08T08:42:40;10.98;;;5.57;;
52508;SDS011;38420;53.150;6.370;2023-09-08T08:45:06;7.15;;;4.90;;
52508;SDS011;38420;53.150;6.370;2023-09-08T08:47:32;8.05;;;5.80;;
52508;SDS011;38420;53.150;6.370;2023-09-08T08:49:58;10.75;;;6.10;;
52508;SDS011;38420;53.150;6.370;2023-09-08T08:52:25;5.95;;;4.57;;
52508;SDS011;38420;53.150;6.370;2023-09-08T08:54:51;7.55;;;5.25;;
52508;SDS011;38420;53.150;6.370;2023-09-08T08:57:17;5.97;;;4.93;;
52508;SDS011;38420;53.150;6.370;2023-09-08T08:59:45;6.40;;;5.63;;
52508;SDS011;38420;53.150;6.370;2023-09-08T09:02:11;6.03;;;5.43;;
52508;SDS011;38420;53.150;6.370;2023-09-08T09:04:39;7.43;;;5.10;;
52508;SDS011;38420;53.150;6.370;2023-09-08T09:07:05;5.70;;;5.10;;
52508;SDS011;38420;53.150;6.370;2023-09-08T09:09:32;5.53;;;4.70;;
52508;SDS011;38420;53.150;6.370;2023-09-08T09:11:58;8.20;;;5.50;;
52508;SDS011;38420;53.150;6.370;2023-09-08T09:14:23;6.63;;;5.03;;
52508;SDS011;38420;53.150;6.370;2023-09-08T09:16:50;7.22;;;4.80;;
52508;SDS011;38420;53.150;6.370;2023-09-08T09:19:20;8.07;;;5.63;;
52508;SDS011;38420;53.150;6.370;2023-09-08T09:21:52;8.13;;;4.43;;
52508;SDS011;38420;53.150;6.370;2023-09-08T09:24:35;7.05;;;5.40;;
52508;SDS011;38420;53.150;6.370;2023-09-08T09:27:04;7.28;;;5.53;;
52508;SDS011;38420;53.150;6.370;2023-09-08T09:29:30;10.25;;;5.35;;
52508;SDS011;38420;53.150;6.370;2023-09-08T09:31:57;7.28;;;5.55;;
52508;SDS011;38420;53.150;6.370;2023-09-08T09:34:34;6.45;;;5.55;;
52508;SDS011;38420;53.150;6.370;2023-09-08T09:37:00;9.18;;;5.55;;
52508;SDS011;38420;53.150;6.370;2023-09-08T09:39:26;8.48;;;6.00;;
52508;SDS011;38420;53.150;6.370;2023-09-08T09:41:58;7.95;;;5.10;;
52508;SDS011;38420;53.150;6.370;2023-09-08T09:44:24;7.80;;;5.78;;
52508;SDS011;38420;53.150;6.370;2023-09-08T09:46:53;8.88;;;5.47;;
52508;SDS011;38420;53.150;6.370;2023-09-08T09:49:19;7.60;;;5.72;;
52508;SDS011;38420;53.150;6.370;2023-09-08T09:51:49;8.70;;;5.38;;
52508;SDS011;38420;53.150;6.370;2023-09-08T09:54:18;6.80;;;6.03;;
52508;SDS011;38420;53.150;6.370;2023-09-08T09:56:44;9.40;;;6.28;;
52508;SDS011;38420;53.150;6.370;2023-09-08T09:59:12;6.80;;;5.90;;
52508;SDS011;38420;53.150;6.370;2023-09-08T10:01:39;6.57;;;5.47;;
52508;SDS011;38420;53.150;6.370;2023-09-08T10:04:06;8.95;;;5.60;;
52508;SDS011;38420;53.150;6.370;2023-09-08T10:06:33;6.82;;;5.70;;
52508;SDS011;38420;53.150;6.370;2023-09-08T10:09:00;9.35;;;6.15;;
52508;SDS011;38420;53.150;6.370;2023-09-08T10:11:31;7.78;;;5.70;;
52508;SDS011;38420;53.150;6.370;2023-09-08T10:14:00;7.65;;;5.45;;
52508;SDS011;38420;53.150;6.370;2023-09-08T10:16:27;6.15;;;5.55;;
52508;SDS011;38420;53.150;6.370;2023-09-08T10:18:57;8.52;;;5.95;;
52508;SDS011;38420;53.150;6.370;2023-09-08T10:21:24;7.95;;;5.80;;
52508;SDS011;38420;53.150;6.370;2023-09-08T10:23:56;6.00;;;5.40;;
52508;SDS011;38420;53.150;6.370;2023-09-08T10:26:30;9.85;;;5.80;;
52508;SDS011;38420;53.150;6.370;2023-09-08T10:28:58;9.15;;;5.68;;
52508;SDS011;38420;53.150;6.370;2023-09-08T10:31:25;7.85;;;5.32;;
52508;SDS011;38420;53.150;6.370;2023-09-08T10:33:53;8.18;;;5.82;;
52508;SDS011;38420;53.150;6.370;2023-09-08T10:36:23;9.77;;;5.65;;
52508;SDS011;38420;53.150;6.370;2023-09-08T10:38:49;6.95;;;5.40;;
52508;SDS011;38420;53.150;6.370;2023-09-08T10:43:45;6.88;;;5.32;;
52508;SDS011;38420;53.150;6.370;2023-09-08T10:46:21;6.30;;;5.70;;
52508;SDS011;38420;53.150;6.370;2023-09-08T10:48:48;7.68;;;6.20;;
52508;SDS011;38420;53.150;6.370;2023-09-08T10:51:14;9.38;;;5.90;;
52508;SDS011;38420;53.150;6.370;2023-09-08T10:53:41;8.43;;;5.88;;
52508;SDS011;38420;53.150;6.370;2023-09-08T10:56:06;9.23;;;5.85;;
52508;SDS011;38420;53.150;6.370;2023-09-08T10:58:36;6.40;;;5.57;;
52508;SDS011;38420;53.150;6.370;2023-09-08T11:01:04;6.25;;;5.63;;
52508;SDS011;38420;53.150;6.370;2023-09-08T11:06:02;9.82;;;6.47;;
52508;SDS011;38420;53.150;6.370;2023-09-08T11:08:34;8.23;;;5.38;;
52508;SDS011;38420;53.150;6.370;2023-09-08T11:11:02;8.68;;;4.97;;
52508;SDS011;38420;53.150;6.370;2023-09-08T11:13:28;7.50;;;5.43;;
52508;SDS011;38420;53.150;6.370;2023-09-08T11:15:54;6.40;;;5.57;;
52508;SDS011;38420;53.150;6.370;2023-09-08T11:20:51;8.07;;;5.10;;
52508;SDS011;38420;53.150;6.370;2023-09-08T11:23:17;6.97;;;5.38;;
52508;SDS011;38420;53.150;6.370;2023-09-08T11:25:42;7.25;;;5.40;;
52508;SDS011;38420;53.150;6.370;2023-09-08T11:28:08;10.27;;;6.05;;
52508;SDS011;38420;53.150;6.370;2023-09-08T11:30:34;7.03;;;5.47;;
52508;SDS011;38420;53.150;6.370;2023-09-08T11:33:01;7.18;;;5.30;;
52508;SDS011;38420;53.150;6.370;2023-09-08T11:35:27;7.72;;;5.53;;
52508;SDS011;38420;53.150;6.370;2023-09-08T11:37:53;6.75;;;4.95;;
52508;SDS011;38420;53.150;6.370;2023-09-08T11:40:24;5.85;;;5.22;;
52508;SDS011;38420;53.150;6.370;2023-09-08T11:42:49;10.07;;;5.15;;
52508;SDS011;38420;53.150;6.370;2023-09-08T11:45:15;6.05;;;5.03;;
52508;SDS011;38420;53.150;6.370;2023-09-08T11:47:48;8.20;;;5.20;;
52508;SDS011;38420;53.150;6.370;2023-09-08T11:50:14;8.80;;;5.50;;
52508;SDS011;38420;53.150;6.370;2023-09-08T11:52:46;6.45;;;5.85;;
52508;SDS011;38420;53.150;6.370;2023-09-08T11:55:13;6.85;;;5.25;;
52508;SDS011;38420;53.150;6.370;2023-09-08T11:57:39;6.93;;;4.85;;
52508;SDS011;38420;53.150;6.370;2023-09-08T12:00:06;6.70;;;4.85;;
52508;SDS011;38420;53.150;6.370;2023-09-08T12:02:36;7.00;;;5.25;;
52508;SDS011;38420;53.150;6.370;2023-09-08T12:05:02;6.38;;;4.97;;
52508;SDS011;38420;53.150;6.370;2023-09-08T12:07:28;8.40;;;5.10;;
52508;SDS011;38420;53.150;6.370;2023-09-08T12:09:54;6.97;;;4.95;;
52508;SDS011;38420;53.150;6.370;2023-09-08T12:12:20;8.32;;;5.47;;
52508;SDS011;38420;53.150;6.370;2023-09-08T12:14:46;7.47;;;5.03;;
52508;SDS011;38420;53.150;6.370;2023-09-08T12:17:11;6.07;;;4.53;;
52508;SDS011;38420;53.150;6.370;2023-09-08T12:19:41;4.93;;;4.40;;
52508;SDS011;38420;53.150;6.370;2023-09-08T12:22:07;7.80;;;4.70;;
52508;SDS011;38420;53.150;6.370;2023-09-08T12:24:48;7.28;;;4.65;;
52508;SDS011;38420;53.150;6.370;2023-09-08T12:27:21;5.05;;;4.50;;
52508;SDS011;38420;53.150;6.370;2023-09-08T12:32:26;6.65;;;4.43;;
52508;SDS011;38420;53.150;6.370;2023-09-08T12:34:54;4.72;;;4.22;;
52508;SDS011;38420;53.150;6.370;2023-09-08T12:37:20;6.20;;;4.13;;
52508;SDS011;38420;53.150;6.370;2023-09-08T12:39:47;8.88;;;4.18;;
52508;SDS011;38420;53.150;6.370;2023-09-08T12:42:12;6.00;;;4.30;;
52508;SDS011;38420;53.150;6.370;2023-09-08T12:44:38;4.80;;;4.18;;
52508;SDS011;38420;53.150;6.370;2023-09-08T12:47:04;6.97;;;4.75;;
52508;SDS011;38420;53.150;6.370;2023-09-08T12:49:29;6.22;;;4.40;;
52508;SDS011;38420;53.150;6.370;2023-09-08T12:51:55;6.97;;;4.20;;
52508;SDS011;38420;53.150;6.370;2023-09-08T12:54:20;4.65;;;4.10;;
52508;SDS011;38420;53.150;6.370;2023-09-08T12:56:46;4.97;;;3.88;;
52508;SDS011;38420;53.150;6.370;2023-09-08T12:59:12;8.70;;;4.32;;
52508;SDS011;38420;53.150;6.370;2023-09-08T13:01:38;5.07;;;3.97;;
52508;SDS011;38420;53.150;6.370;2023-09-08T13:04:03;5.15;;;3.75;;
52508;SDS011;38420;53.150;6.370;2023-09-08T13:06:29;6.07;;;4.13;;
52508;SDS011;38420;53.150;6.370;2023-09-08T13:08:57;8.73;;;4.57;;
52508;SDS011;38420;53.150;6.370;2023-09-08T13:11:23;5.57;;;4.43;;
52508;SDS011;38420;53.150;6.370;2023-09-08T13:13:49;5.55;;;4.40;;
52508;SDS011;38420;53.150;6.370;2023-09-08T13:16:15;5.90;;;4.38;;
52508;SDS011;38420;53.150;6.370;2023-09-08T13:18:40;4.72;;;4.18;;
52508;SDS011;38420;53.150;6.370;2023-09-08T13:21:06;6.60;;;4.10;;
52508;SDS011;38420;53.150;6.370;2023-09-08T13:23:32;6.50;;;4.30;;
52508;SDS011;38420;53.150;6.370;2023-09-08T13:25:57;7.63;;;4.68;;
52508;SDS011;38420;53.150;6.370;2023-09-08T13:28:23;5.53;;;4.15;;
52508;SDS011;38420;53.150;6.370;2023-09-08T13:30:48;5.97;;;4.07;;
52508;SDS011;38420;53.150;6.370;2023-09-08T13:33:14;6.40;;;4.10;;
52508;SDS011;38420;53.150;6.370;2023-09-08T13:35:40;7.00;;;4.55;;
52508;SDS011;38420;53.150;6.370;2023-09-08T13:38:05;7.75;;;3.95;;
52508;SDS011;38420;53.150;6.370;2023-09-08T13:40:31;4.28;;;3.80;;
52508;SDS011;38420;53.150;6.370;2023-09-08T13:42:56;8.70;;;4.25;;
52508;SDS011;38420;53.150;6.370;2023-09-08T13:45:22;5.53;;;4.30;;
52508;SDS011;38420;53.150;6.370;2023-09-08T13:47:48;6.72;;;4.28;;
52508;SDS011;38420;53.150;6.370;2023-09-08T13:50:13;5.65;;;4.18;;
52508;SDS011;38420;53.150;6.370;2023-09-08T13:52:39;6.00;;;3.72;;
52508;SDS011;38420;53.150;6.370;2023-09-08T13:55:07;5.60;;;4.28;;
52508;SDS011;38420;53.150;6.370;2023-09-08T13:57:33;9.07;;;4.10;;
52508;SDS011;38420;53.150;6.370;2023-09-08T13:59:59;4.93;;;4.43;;
52508;SDS011;38420;53.150;6.370;2023-09-08T14:02:25;8.00;;;4.53;;
52508;SDS011;38420;53.150;6.370;2023-09-08T14:04:50;6.20;;;4.43;;
52508;SDS011;38420;53.150;6.370;2023-09-08T14:07:16;9.05;;;4.47;;
52508;SDS011;38420;53.150;6.370;2023-09-08T14:09:42;6.53;;;4.30;;
52508;SDS011;38420;53.150;6.370;2023-09-08T14:12:07;6.20;;;4.03;;
52508;SDS011;38420;53.150;6.370;2023-09-08T14:14:33;7.00;;;4.47;;
52508;SDS011;38420;53.150;6.370;2023-09-08T14:16:59;8.85;;;4.60;;
52508;SDS011;38420;53.150;6.370;2023-09-08T14:19:24;8.15;;;4.43;;
52508;SDS011;38420;53.150;6.370;2023-09-08T14:21:50;6.50;;;4.80;;
52508;SDS011;38420;53.150;6.370;2023-09-08T14:24:16;6.75;;;4.65;;
52508;SDS011;38420;53.150;6.370;2023-09-08T14:26:42;5.47;;;4.53;;
52508;SDS011;38420;53.150;6.370;2023-09-08T14:29:07;6.22;;;4.53;;
52508;SDS011;38420;53.150;6.370;2023-09-08T14:31:33;8.00;;;4.63;;
52508;SDS011;38420;53.150;6.370;2023-09-08T14:33:59;6.97;;;4.53;;
52508;SDS011;38420;53.150;6.370;2023-09-08T14:36:25;6.72;;;4.30;;
52508;SDS011;38420;53.150;6.370;2023-09-08T14:38:50;6.55;;;4.53;;
52508;SDS011;38420;53.150;6.370;2023-09-08T14:41:16;5.28;;;4.78;;
52508;SDS011;38420;53.150;6.370;2023-09-08T14:43:42;5.00;;;4.30;;